createdAt,value
2018-04-01T00:02:06.012Z,7.00
2018-04-01T00:04:32.961Z,7.10
2018-04-01T00:06:59.908Z,7.00
2018-04-01T00:09:26.882Z,7.00
2018-04-01T00:11:53.957Z,7.00
2018-04-01T00:14:20.900Z,7.00
2018-04-01T00:16:47.873Z,7.00
2018-04-01T00:19:14.821Z,7.00
2018-04-01T00:21:41.780Z,7.00
2018-04-01T00:24:08.743Z,7.00
2018-04-01T00:26:35.694Z,7.00
2018-04-01T00:29:02.701Z,7.00
2018-04-01T00:31:29.660Z,7.00
2018-04-01T00:33:56.641Z,7.00
2018-04-01T00:36:23.597Z,7.00
2018-04-01T00:38:51.316Z,7.00
2018-04-01T00:41:23.400Z,7.00
2018-04-01T00:43:51.305Z,7.00
2018-04-01T00:46:19.025Z,7.00
2018-04-01T00:48:46.274Z,7.00
2018-04-01T00:51:13.312Z,6.90
2018-04-01T00:53:40.273Z,6.90
2018-04-01T00:56:07.252Z,6.90
2018-04-01T00:58:35.000Z,6.80
2018-04-01T01:01:01.952Z,6.80
2018-04-01T01:03:28.896Z,6.80
2018-04-01T01:05:55.898Z,6.80
2018-04-01T01:08:22.844Z,6.80
2018-04-01T01:11:06.412Z,6.80
2018-04-01T01:13:33.373Z,6.70
2018-04-01T01:16:00.321Z,6.80
2018-04-01T01:18:27.585Z,6.70
2018-04-01T01:20:55.297Z,6.70
2018-04-01T01:23:22.245Z,6.70
2018-04-01T01:25:49.213Z,6.70
2018-04-01T01:28:16.161Z,6.70
2018-04-01T01:30:43.138Z,6.60
2018-04-01T01:33:10.848Z,6.60
2018-04-01T01:35:37.879Z,6.60
2018-04-01T01:38:04.839Z,6.50
2018-04-01T01:40:31.812Z,6.50
2018-04-01T01:42:58.777Z,6.50
2018-04-01T01:45:26.569Z,6.30
2018-04-01T01:47:53.560Z,6.30
2018-04-01T01:53:12.166Z,6.30
2018-04-01T01:55:39.935Z,6.20
2018-04-01T01:58:07.655Z,6.20
2018-04-01T02:00:34.608Z,6.20
2018-04-01T02:03:01.732Z,6.20
2018-04-01T02:05:28.676Z,6.20
2018-04-01T02:07:55.675Z,6.20
2018-04-01T02:10:22.610Z,6.20
2018-04-01T02:12:49.616Z,6.20
2018-04-01T02:15:16.577Z,6.20
2018-04-01T02:17:43.614Z,6.20
2018-04-01T02:20:10.557Z,6.20
2018-04-01T02:22:38.342Z,6.20
2018-04-01T02:25:05.294Z,6.20
2018-04-01T02:27:32.277Z,6.20
2018-04-01T02:29:59.983Z,6.20
2018-04-01T02:32:26.941Z,6.20
2018-04-01T02:34:54.015Z,6.20
2018-04-01T02:37:20.981Z,6.20
2018-04-01T02:39:48.709Z,6.10
2018-04-01T02:42:15.668Z,6.10
2018-04-01T02:44:47.865Z,6.10
2018-04-01T02:47:14.813Z,6.10
2018-04-01T02:49:41.766Z,6.20
2018-04-01T02:52:09.676Z,6.10
2018-04-01T02:54:36.793Z,6.10
2018-04-01T02:57:03.735Z,6.10
2018-04-01T02:59:30.718Z,6.10
2018-04-01T03:01:57.660Z,6.10
2018-04-01T03:04:24.618Z,6.10
2018-04-01T03:06:51.728Z,6.10
2018-04-01T03:09:18.661Z,6.10
2018-04-01T03:14:46.013Z,6.10
2018-04-01T03:17:14.047Z,6.10
2018-04-01T03:19:40.990Z,6.10
2018-04-01T03:22:07.941Z,6.10
2018-04-01T03:24:35.276Z,6.10
2018-04-01T03:27:02.237Z,6.10
2018-04-01T03:29:29.278Z,6.10
2018-04-01T03:31:56.320Z,6.10
2018-04-01T03:34:23.269Z,6.10
2018-04-01T03:36:50.232Z,6.10
2018-04-01T03:39:17.176Z,6.10
2018-04-01T03:41:44.188Z,6.10
2018-04-01T03:44:11.136Z,6.10
2018-04-01T03:46:38.079Z,6.10
2018-04-01T03:49:05.222Z,6.10
2018-04-01T03:51:32.181Z,6.10
2018-04-01T03:53:59.124Z,6.10
2018-04-01T03:56:26.138Z,6.10
2018-04-01T03:58:53.857Z,6.10
2018-04-01T04:01:20.825Z,6.00
2018-04-01T04:03:47.768Z,6.00
2018-04-01T04:06:14.792Z,6.10
2018-04-01T04:08:41.740Z,6.10
2018-04-01T04:11:08.739Z,6.00
2018-04-01T04:13:36.448Z,6.00
2018-04-01T04:16:03.405Z,6.00
2018-04-01T04:18:30.397Z,6.00
2018-04-01T04:20:57.345Z,5.90
2018-04-01T04:23:24.344Z,5.90
2018-04-01T04:25:51.292Z,5.80
2018-04-01T04:28:18.233Z,5.80
2018-04-01T04:30:45.249Z,5.70
2018-04-01T04:33:12.373Z,5.70
2018-04-01T04:35:40.096Z,5.70
2018-04-01T04:38:07.185Z,5.70
2018-04-01T04:40:39.830Z,5.60
2018-04-01T04:43:06.801Z,5.60
2018-04-01T04:45:34.516Z,5.60
2018-04-01T04:48:01.469Z,5.60
2018-04-01T04:50:28.466Z,5.60
2018-04-01T04:52:56.176Z,5.60
2018-04-01T04:55:23.169Z,5.60
2018-04-01T04:57:50.881Z,5.60
2018-04-01T05:00:18.802Z,5.60
2018-04-01T05:02:46.713Z,5.60
2018-04-01T05:05:13.656Z,5.60
2018-04-01T05:07:40.603Z,5.60
2018-04-01T05:10:07.581Z,5.60
2018-04-01T05:12:34.523Z,5.60
2018-04-01T05:15:01.497Z,5.70
2018-04-01T05:17:29.208Z,5.70
2018-04-01T05:23:08.273Z,5.70
2018-04-01T05:25:35.264Z,5.70
2018-04-01T05:28:02.223Z,5.70
2018-04-01T05:30:29.178Z,5.70
2018-04-01T05:32:56.189Z,5.80
2018-04-01T05:35:23.903Z,5.80
2018-04-01T05:37:50.939Z,5.80
2018-04-01T05:40:17.886Z,5.80
2018-04-01T05:42:44.904Z,5.80
2018-04-01T05:45:12.621Z,5.80
2018-04-01T05:47:39.615Z,5.80
2018-04-01T05:50:06.576Z,5.80
2018-04-01T05:52:33.531Z,5.80
2018-04-01T05:55:00.516Z,5.80
2018-04-01T05:57:27.594Z,5.80
2018-04-01T06:00:04.311Z,5.80
2018-04-01T06:02:31.275Z,5.80
2018-04-01T06:04:58.225Z,5.80
2018-04-01T06:07:25.257Z,5.80
2018-04-01T06:09:52.200Z,5.80
2018-04-01T06:12:20.761Z,5.80
2018-04-01T06:14:47.729Z,5.90
2018-04-01T06:17:14.668Z,5.80
2018-04-01T06:19:41.654Z,5.80
2018-04-01T06:27:51.975Z,5.80
2018-04-01T06:30:19.714Z,5.80
2018-04-01T06:32:46.680Z,5.70
2018-04-01T06:35:14.473Z,5.70
2018-04-01T06:37:41.628Z,5.70
2018-04-01T06:40:08.709Z,5.70
2018-04-01T06:42:35.653Z,5.70
2018-04-01T06:45:02.606Z,5.70
2018-04-01T06:47:29.580Z,5.70
2018-04-01T06:49:58.329Z,5.70
2018-04-01T06:52:25.272Z,5.70
2018-04-01T06:54:52.233Z,5.70
2018-04-01T06:57:19.268Z,5.60
2018-04-01T07:02:44.665Z,5.60
2018-04-01T07:05:11.745Z,5.50
2018-04-01T07:07:38.694Z,5.50
2018-04-01T07:10:05.636Z,5.50
2018-04-01T07:12:32.692Z,5.50
2018-04-01T07:14:59.676Z,5.50
2018-04-01T07:17:27.420Z,5.60
2018-04-01T07:19:54.321Z,5.50
2018-04-01T07:22:21.413Z,5.50
2018-04-01T07:24:48.344Z,5.50
2018-04-01T07:27:15.309Z,5.40
2018-04-01T07:29:42.340Z,5.30
2018-04-01T07:32:09.279Z,5.30
2018-04-01T07:34:36.221Z,5.20
2018-04-01T07:37:03.263Z,5.20
2018-04-01T07:42:33.104Z,5.10
2018-04-01T07:45:00.046Z,5.10
2018-04-01T07:47:27.266Z,5.00
2018-04-01T07:52:34.174Z,5.00
2018-04-01T07:55:01.121Z,5.00
2018-04-01T07:57:28.136Z,5.00
2018-04-01T08:03:11.074Z,5.00
2018-04-01T08:05:38.781Z,5.00
2018-04-01T08:08:05.900Z,5.00
2018-04-01T08:10:34.119Z,5.00
2018-04-01T08:13:01.058Z,5.00
2018-04-01T08:15:30.078Z,5.00
2018-04-01T08:17:59.558Z,4.90
2018-04-01T08:20:26.496Z,4.90
2018-04-01T08:22:53.483Z,4.90
2018-04-01T08:25:20.420Z,4.90
2018-04-01T08:27:47.356Z,4.90
2018-04-01T08:30:14.413Z,4.90
2018-04-01T08:32:41.389Z,5.00
2018-04-01T08:35:08.336Z,5.00
2018-04-01T08:37:36.044Z,5.10
2018-04-01T08:40:03.411Z,5.00
2018-04-01T08:45:24.051Z,5.10
2018-04-01T08:47:50.994Z,5.10
2018-04-01T08:50:17.949Z,5.20
2018-04-01T08:52:44.965Z,5.20
2018-04-01T08:55:11.910Z,5.20
2018-04-01T08:57:43.700Z,5.20
2018-04-01T09:00:11.508Z,5.20
2018-04-01T09:02:38.470Z,5.20
2018-04-01T09:05:06.782Z,5.20
2018-04-01T09:07:33.740Z,5.20
2018-04-01T09:10:01.465Z,5.20
2018-04-01T09:12:37.614Z,5.20
2018-04-01T09:15:04.625Z,5.30
2018-04-01T09:17:31.576Z,5.30
2018-04-01T09:19:58.623Z,5.30
2018-04-01T09:22:25.641Z,5.30
2018-04-01T09:24:52.604Z,5.30
2018-04-01T09:27:20.344Z,5.30
2018-04-01T09:29:47.414Z,5.30
2018-04-01T09:32:15.146Z,5.40
2018-04-01T09:34:42.117Z,5.40
2018-04-01T09:37:10.785Z,5.50
2018-04-01T09:39:37.798Z,5.50
2018-04-01T09:47:54.306Z,5.60
2018-04-01T09:50:21.282Z,5.70
2018-04-01T09:52:49.063Z,5.70
2018-04-01T09:55:16.113Z,5.70
2018-04-01T09:57:43.089Z,5.70
2018-04-01T10:00:10.191Z,5.70
2018-04-01T10:02:37.676Z,5.70
2018-04-01T10:05:17.750Z,5.80
2018-04-01T10:07:55.901Z,5.80
2018-04-01T10:10:23.358Z,5.80
2018-04-01T10:12:50.862Z,5.80
2018-04-01T10:15:18.366Z,5.90
2018-04-01T10:17:45.838Z,5.90
2018-04-01T10:20:13.459Z,5.90
2018-04-01T10:22:40.883Z,5.90
2018-04-01T10:25:12.164Z,5.90
2018-04-01T10:27:40.389Z,6.00
2018-04-01T10:30:07.917Z,5.90
2018-04-01T10:32:35.401Z,6.00
2018-04-01T10:35:02.830Z,6.00
2018-04-01T10:37:31.743Z,6.00
2018-04-01T10:39:59.205Z,6.00
2018-04-01T10:42:26.677Z,6.00
2018-04-01T10:44:54.213Z,6.00
2018-04-01T11:01:41.234Z,6.00
2018-04-01T11:04:08.189Z,6.00
2018-04-01T11:06:35.253Z,6.00
2018-04-01T11:09:02.225Z,6.00
2018-04-01T11:11:29.245Z,6.10
2018-04-01T11:13:56.282Z,6.00
2018-04-01T11:16:23.225Z,6.00
2018-04-01T11:18:51.008Z,6.00
2018-04-01T11:21:18.425Z,6.00
2018-04-01T11:23:45.401Z,6.00
2018-04-01T11:26:12.370Z,6.00
2018-04-01T11:28:39.374Z,6.10
2018-04-01T11:31:07.312Z,6.10
2018-04-01T11:33:35.033Z,6.00
2018-04-01T11:36:02.230Z,6.00
2018-04-01T11:38:36.389Z,6.10
2018-04-01T11:41:03.356Z,6.10
2018-04-01T11:43:30.338Z,6.10
2018-04-01T11:45:57.491Z,6.10
2018-04-01T11:48:25.293Z,6.20
2018-04-01T11:50:52.261Z,6.20
2018-04-01T11:53:19.353Z,6.30
2018-04-01T11:55:46.451Z,6.30
2018-04-01T11:58:13.426Z,6.30
2018-04-01T12:00:41.198Z,6.40
2018-04-01T12:03:10.102Z,6.40
2018-04-01T12:05:36.980Z,6.40
2018-04-01T12:08:03.962Z,6.40
2018-04-01T12:10:31.037Z,6.40
2018-04-01T12:12:58.762Z,6.40
2018-04-01T12:15:25.758Z,6.40
2018-04-01T12:17:52.766Z,6.30
2018-04-01T12:20:19.805Z,6.40
2018-04-01T12:22:46.777Z,6.40
2018-04-01T12:25:14.586Z,6.40
2018-04-01T12:27:42.316Z,6.30
2018-04-01T12:30:10.090Z,6.30
2018-04-01T12:32:37.104Z,6.30
2018-04-01T12:35:04.114Z,6.30
2018-04-01T12:37:31.095Z,6.30
2018-04-01T12:39:58.064Z,6.40
2018-04-01T12:42:25.921Z,6.40
2018-04-01T12:44:56.549Z,6.40
2018-04-01T12:47:25.096Z,6.40
2018-04-01T12:49:52.086Z,6.40
2018-04-01T12:52:19.852Z,6.50
2018-04-01T12:54:47.572Z,6.50
2018-04-01T12:57:14.568Z,6.40
2018-04-01T12:59:42.291Z,6.50
2018-04-01T13:02:09.265Z,6.40
2018-04-01T13:04:36.213Z,6.50
2018-04-01T13:07:03.209Z,6.50
2018-04-01T13:09:30.152Z,6.50
2018-04-01T13:11:57.105Z,6.50
2018-04-01T13:14:24.317Z,6.50
2018-04-01T13:16:52.045Z,6.50
2018-04-01T13:19:18.997Z,6.50
2018-04-01T13:21:47.301Z,6.50
2018-04-01T13:24:15.013Z,6.70
2018-04-01T13:26:41.966Z,6.70
2018-04-01T13:29:08.975Z,6.90
2018-04-01T13:31:35.921Z,7.10
2018-04-01T13:34:02.904Z,7.20
2018-04-01T13:36:29.861Z,7.30
2018-04-01T13:38:56.890Z,7.40
2018-04-01T13:41:23.881Z,7.40
2018-04-01T13:43:50.819Z,7.50
2018-04-01T13:46:17.764Z,7.50
2018-04-01T13:48:46.129Z,7.60
2018-04-01T13:51:13.081Z,7.70
2018-04-01T13:53:40.097Z,7.80
2018-04-01T13:56:07.806Z,8.00
2018-04-01T13:58:34.764Z,7.90
2018-04-01T14:01:02.690Z,8.00
2018-04-01T14:03:29.633Z,8.00
2018-04-01T14:05:56.592Z,8.00
2018-04-01T14:08:23.565Z,8.00
2018-04-01T14:10:51.308Z,7.90
2018-04-01T14:13:18.256Z,7.90
2018-04-01T14:15:45.214Z,7.80
2018-04-01T14:18:12.324Z,7.80
2018-04-01T14:20:39.288Z,7.80
2018-04-01T14:23:06.262Z,7.80
2018-04-01T14:25:33.746Z,7.90
2018-04-01T14:28:00.697Z,7.90
2018-04-01T14:30:27.698Z,7.90
2018-04-01T14:32:54.640Z,7.80
2018-04-01T14:35:21.593Z,7.80
2018-04-01T14:37:48.618Z,7.80
2018-04-01T14:40:15.925Z,7.70
2018-04-01T14:42:42.892Z,7.70
2018-04-01T14:45:09.841Z,7.70
2018-04-01T14:47:36.882Z,7.70
2018-04-01T14:50:03.835Z,7.70
2018-04-01T14:52:31.117Z,7.70
2018-04-01T14:54:58.066Z,7.70
2018-04-01T14:57:25.008Z,7.80
2018-04-01T14:59:51.980Z,7.80
2018-04-01T15:02:19.762Z,7.80
2018-04-01T15:04:46.717Z,7.90
2018-04-01T15:07:13.708Z,7.90
2018-04-01T15:09:40.688Z,7.90
2018-04-01T15:12:08.401Z,7.80
2018-04-01T15:14:35.510Z,7.80
2018-04-01T15:17:02.457Z,7.70
2018-04-01T15:19:29.397Z,7.60
2018-04-01T15:21:56.516Z,7.50
2018-04-01T15:24:23.468Z,7.50
2018-04-01T15:26:50.441Z,7.40
2018-04-01T15:29:18.209Z,7.30
2018-04-01T15:31:45.157Z,7.30
2018-04-01T15:34:17.269Z,7.30
2018-04-01T15:36:45.040Z,7.30
2018-04-01T15:39:12.312Z,7.20
2018-04-01T15:41:39.453Z,7.20
2018-04-01T15:44:06.398Z,7.20
2018-04-01T15:46:33.356Z,7.10
2018-04-01T15:49:00.403Z,7.10
2018-04-01T15:51:28.064Z,7.00
2018-04-01T15:53:55.005Z,7.00
2018-04-01T15:56:22.038Z,7.00
2018-04-01T15:58:48.984Z,7.00
2018-04-01T16:01:16.013Z,6.90
2018-04-01T16:03:42.953Z,6.90
2018-04-01T16:06:09.922Z,6.80
2018-04-01T16:08:37.034Z,6.80
2018-04-01T16:11:03.993Z,6.70
2018-04-01T16:13:30.955Z,6.70
2018-04-01T16:15:58.022Z,6.70
2018-04-01T16:18:25.877Z,6.70
2018-04-01T16:20:53.573Z,6.60
2018-04-01T16:23:21.429Z,6.60
2018-04-01T16:25:48.382Z,6.60
2018-04-01T16:28:15.325Z,6.60
2018-04-01T16:30:43.153Z,6.50
2018-04-01T16:33:10.110Z,6.50
2018-04-01T16:35:37.062Z,6.50
2018-04-01T16:38:04.112Z,6.40
2018-04-01T16:40:31.431Z,6.40
2018-04-01T16:43:05.277Z,6.30
2018-04-01T16:45:32.229Z,6.30
2018-04-01T16:47:59.174Z,6.30
2018-04-01T16:50:26.266Z,6.30
2018-04-01T16:52:53.225Z,6.30
2018-04-01T16:55:20.178Z,6.20
2018-04-01T16:57:47.549Z,6.20
2018-04-01T17:00:14.502Z,6.20
2018-04-01T17:02:41.453Z,6.20
2018-04-01T17:05:08.532Z,6.10
2018-04-01T17:07:36.263Z,6.00
2018-04-01T17:10:03.208Z,6.00
2018-04-01T17:12:30.240Z,6.00
2018-04-01T17:14:57.200Z,6.00
2018-04-01T17:17:24.169Z,6.00
2018-04-01T17:19:51.886Z,6.00
2018-04-01T17:22:19.281Z,6.00
2018-04-01T17:24:46.217Z,6.00
2018-04-01T17:27:13.174Z,6.00
2018-04-01T17:29:40.149Z,6.00
2018-04-01T17:32:07.111Z,6.00
2018-04-01T17:34:34.505Z,6.00
2018-04-01T17:37:01.457Z,5.90
2018-04-01T17:39:28.414Z,5.90
2018-04-01T17:41:55.451Z,5.90
2018-04-01T17:44:22.434Z,5.80
2018-04-01T17:46:49.381Z,5.80
2018-04-01T17:49:16.336Z,5.80
2018-04-01T17:51:43.316Z,5.80
2018-04-01T17:54:10.461Z,5.80
2018-04-01T17:56:37.412Z,5.70
2018-04-01T17:59:04.371Z,5.70
2018-04-01T18:01:31.398Z,5.60
2018-04-01T18:03:58.397Z,5.60
2018-04-01T18:06:26.120Z,5.60
2018-04-01T18:08:54.076Z,5.60
2018-04-01T18:11:21.080Z,5.60
2018-04-01T18:13:48.801Z,5.60
2018-04-01T18:16:15.771Z,5.60
2018-04-01T18:18:42.725Z,5.60
2018-04-01T18:21:10.472Z,5.60
2018-04-01T18:23:37.434Z,5.60
2018-04-01T18:26:05.232Z,5.60
2018-04-01T18:28:32.192Z,5.60
2018-04-01T18:30:59.172Z,5.60
2018-04-01T18:33:26.137Z,5.60
2018-04-01T18:36:05.065Z,5.60
2018-04-01T18:38:33.428Z,5.60
2018-04-01T18:41:00.656Z,5.60
2018-04-01T18:43:27.606Z,5.60
2018-04-01T18:45:54.560Z,5.60
2018-04-01T18:48:21.647Z,5.60
2018-04-01T18:50:49.361Z,5.60
2018-04-01T18:53:16.325Z,5.50
2018-04-01T18:55:43.387Z,5.50
2018-04-01T18:58:10.338Z,5.50
2018-04-01T19:00:38.050Z,5.50
2018-04-01T19:03:05.061Z,5.50
2018-04-01T19:05:32.776Z,5.60
2018-04-01T19:07:59.737Z,5.50
2018-04-01T19:10:26.700Z,5.50
2018-04-01T19:15:44.888Z,5.50
2018-04-01T19:18:12.356Z,5.50
2018-04-01T19:20:39.806Z,5.60
2018-04-01T19:23:07.274Z,5.60
2018-04-01T19:25:34.721Z,5.60
2018-04-01T19:28:07.132Z,5.60
2018-04-01T19:30:34.573Z,5.60
2018-04-01T19:33:02.020Z,5.60
2018-04-01T19:35:29.484Z,5.60
2018-04-01T19:38:01.052Z,5.60
2018-04-01T19:40:28.794Z,5.60
2018-04-01T19:42:56.330Z,5.60
2018-04-01T19:45:23.792Z,5.60
2018-04-01T19:47:51.243Z,5.60
2018-04-01T19:50:21.369Z,5.60
2018-04-01T19:52:49.576Z,5.60
2018-04-01T19:55:17.065Z,5.60
2018-04-01T19:57:44.518Z,5.60
2018-04-01T20:00:11.946Z,5.60
2018-04-01T20:02:39.432Z,5.60
2018-04-01T20:05:06.944Z,5.60
2018-04-01T20:07:34.391Z,5.60
2018-04-01T20:10:02.625Z,5.60
2018-04-01T20:12:30.077Z,5.60
2018-04-01T20:14:57.597Z,5.60
2018-04-01T20:17:25.035Z,5.60
2018-04-01T20:22:59.692Z,5.50
2018-04-01T20:25:27.184Z,5.50
2018-04-01T20:27:54.631Z,5.50
2018-04-01T20:30:22.090Z,5.50
2018-04-01T20:32:49.708Z,5.50
2018-04-01T20:35:17.919Z,5.50
2018-04-01T20:37:45.366Z,5.50
2018-04-01T20:40:12.921Z,5.50
2018-04-01T20:42:40.416Z,5.50
2018-04-01T20:45:12.996Z,5.50
2018-04-01T20:47:40.457Z,5.50
2018-04-01T20:50:07.895Z,5.50
2018-04-01T20:52:35.388Z,5.50
2018-04-01T20:55:02.824Z,5.50
2018-04-01T20:57:30.397Z,5.50
2018-04-01T20:59:57.845Z,5.50
2018-04-01T21:02:25.291Z,5.50
2018-04-01T21:04:53.076Z,5.50
2018-04-01T21:07:20.524Z,5.50
2018-04-01T21:09:53.914Z,5.50
2018-04-01T21:12:21.381Z,5.50
2018-04-01T21:14:48.822Z,5.50
2018-04-01T21:17:16.352Z,5.50
2018-04-01T21:19:44.553Z,5.50
2018-04-01T21:22:12.275Z,5.50
2018-04-01T21:24:40.737Z,5.50
2018-04-01T21:27:08.172Z,5.50
2018-04-01T21:29:35.664Z,5.50
2018-04-01T21:32:03.101Z,5.50
2018-04-01T21:34:30.549Z,5.50
2018-04-01T21:36:58.085Z,5.50
2018-04-01T21:39:25.571Z,5.50
2018-04-01T21:50:41.151Z,5.50
2018-04-01T21:53:09.377Z,5.50
2018-04-01T21:55:36.810Z,5.50
2018-04-01T21:58:04.280Z,5.50
2018-04-01T22:00:40.759Z,5.50
2018-04-01T22:03:08.529Z,5.50
2018-04-01T22:05:35.969Z,5.50
2018-04-01T22:08:04.177Z,5.50
2018-04-01T22:10:31.674Z,5.50
2018-04-01T22:12:59.111Z,5.50
2018-04-01T22:15:27.531Z,5.50
2018-04-01T22:20:46.241Z,5.50
2018-04-01T22:23:13.680Z,5.50
2018-04-01T22:25:41.143Z,5.50
2018-04-01T22:28:08.588Z,5.50
2018-04-01T22:30:36.117Z,5.50
2018-04-01T22:35:55.556Z,5.50
2018-04-01T22:38:22.991Z,5.50
2018-04-01T22:40:50.453Z,5.50
2018-04-01T22:43:17.905Z,5.50
2018-04-01T22:45:47.329Z,5.50
2018-04-01T22:48:14.790Z,5.50
2018-04-01T22:50:42.236Z,5.50
2018-04-01T22:53:14.517Z,5.50
2018-04-01T22:55:42.053Z,5.50
2018-04-01T22:58:09.525Z,5.50
2018-04-01T23:00:36.972Z,5.50
2018-04-01T23:03:05.179Z,5.50
2018-04-01T23:05:32.713Z,5.50
2018-04-01T23:08:00.164Z,5.50
2018-04-01T23:10:27.621Z,5.50
2018-04-01T23:12:55.057Z,5.50
2018-04-01T23:15:22.500Z,5.50
2018-04-01T23:20:47.585Z,5.50
2018-04-01T23:23:15.036Z,5.50
2018-04-01T23:25:42.521Z,5.50
2018-04-01T23:28:09.961Z,5.50
2018-04-01T23:30:37.424Z,5.50
2018-04-01T23:33:04.879Z,5.50
2018-04-01T23:35:32.337Z,5.50
2018-04-01T23:38:00.012Z,5.50
2018-04-01T23:40:27.457Z,5.50
2018-04-01T23:42:54.906Z,5.50
2018-04-01T23:45:22.381Z,5.50
2018-04-01T23:47:50.048Z,5.50
2018-04-01T23:50:31.346Z,5.50
2018-04-01T23:52:59.680Z,5.50
2018-04-01T23:55:27.130Z,5.40
2018-04-01T23:57:54.577Z,5.40
